Fort Severn Airport
CYER : now visible

Airfield :











YOU CAN JOIN US ON...

 
LOGIN :

Register | Disclaimer

   EN    FR    IT 

 









Legend :    VFR   Marginal VFR   IFR   Intensive IFR   Very Intensive IFR
Visi :
Ceiling :
>= 8 km
>= 3000ft
5 to 8 km
1000 to 3000 ft
1500m to 5 km
500 to 1000 ft
800 to 1500m
200 to 500 ft
< 800m
< 200 ft
Symbols :   Thunderstorms  Fog  Heavy snow  Heavy precipitations  Wind > 20 kt







- Airport Elevation : 48 ft
- IATA code : YER


CYER - Fort Severn

CURRENT METAR :
  • 162100Z AUTO 07007KT 9SM CLR 17/13 A2998 RMK SLP153 DENSITY ALT 200FT

EXPIRED METARs :
  • 162000Z AUTO 03003KT 010V100 9SM CLR 18/14 A2996 RMK SLP148 DENSITY ALT 300FT
  • 161900Z AUTO 31003KT 260V360 9SM FEW020 18/13 A2996 RMK SLP147 DENSITY ALT 300FT

Expired Forecast.
No reported NOTAMs for that airfield.



MET'MAP, your aeronautical weather chart ! - Copyright ORBIFLY December 2007 - Disclaimer

ORBIFLY MET'MAP TEAM :

Programming & Development : Alexandra Zaïnal
Concept & Development : Baudouin d'Aumeries
Co-Development & Prog : Marc-Olivier Méhu
Technical & hardware support : Manuel Goepfert

Contact : metmap@orbifly.com




SOURCES & CREDITS :

   NOAA       Earth
Advisory